createdAt,value
2017-12-15T00:01:01.006Z,26.30
2017-12-15T00:03:32.223Z,26.40
2017-12-15T00:06:02.715Z,26.30
2017-12-15T00:08:33.170Z,26.40
2017-12-15T00:11:03.614Z,26.40
2017-12-15T00:13:34.834Z,26.50
2017-12-15T00:16:05.321Z,26.50
2017-12-15T00:18:35.784Z,26.50
2017-12-15T00:21:06.246Z,26.60
2017-12-15T00:23:37.488Z,26.70
2017-12-15T00:26:08.718Z,26.70
2017-12-15T00:28:39.143Z,26.70
2017-12-15T00:31:09.634Z,26.80
2017-12-15T00:33:40.074Z,26.80
2017-12-15T00:36:10.532Z,26.80
2017-12-15T00:38:40.990Z,26.90
2017-12-15T00:41:11.426Z,26.90
2017-12-15T00:43:41.852Z,27.00
2017-12-15T00:46:12.283Z,27.00
2017-12-15T00:48:42.714Z,27.00
2017-12-15T00:51:13.242Z,27.10
2017-12-15T00:53:43.700Z,27.20
2017-12-15T00:56:14.133Z,27.20
2017-12-15T00:58:44.589Z,27.20
2017-12-15T01:01:15.812Z,27.30
2017-12-15T01:03:46.291Z,27.30
2017-12-15T01:06:16.729Z,27.40
2017-12-15T01:08:47.186Z,27.40
2017-12-15T01:11:17.611Z,27.40
2017-12-15T01:13:48.047Z,27.40
2017-12-15T01:16:18.495Z,27.50
2017-12-15T01:18:49.683Z,27.60
2017-12-15T01:21:20.105Z,27.60
2017-12-15T01:23:50.565Z,27.60
2017-12-15T01:26:20.987Z,27.70
2017-12-15T01:28:51.450Z,27.70
2017-12-15T01:31:22.678Z,27.80
2017-12-15T01:33:53.153Z,27.80
2017-12-15T01:36:23.588Z,27.90
2017-12-15T01:38:54.042Z,27.90
2017-12-15T01:41:24.505Z,28.00
2017-12-15T01:43:55.720Z,28.10
2017-12-15T01:46:26.130Z,28.00
2017-12-15T01:48:56.593Z,28.10
2017-12-15T01:51:27.828Z,28.20
2017-12-15T01:53:58.326Z,28.10
2017-12-15T01:56:28.812Z,28.20
2017-12-15T01:59:00.047Z,28.30
2017-12-15T02:01:31.259Z,28.30
2017-12-15T02:04:01.712Z,28.30
2017-12-15T02:06:32.158Z,28.30
2017-12-15T02:09:03.437Z,28.50
2017-12-15T02:11:33.888Z,28.50
2017-12-15T02:14:04.329Z,28.50
2017-12-15T02:16:34.781Z,28.60
2017-12-15T02:19:06.018Z,28.70
2017-12-15T02:21:36.431Z,28.60
2017-12-15T02:24:06.887Z,28.70
2017-12-15T02:26:37.382Z,28.70
2017-12-15T02:29:07.831Z,28.80
2017-12-15T02:31:39.004Z,28.80
2017-12-15T02:34:09.432Z,28.90
2017-12-15T02:36:39.871Z,28.90
2017-12-15T02:39:10.318Z,28.90
2017-12-15T02:41:40.747Z,29.00
2017-12-15T02:44:11.202Z,29.00
2017-12-15T02:46:41.654Z,29.10
2017-12-15T02:49:12.072Z,29.10
2017-12-15T02:51:43.276Z,29.20
2017-12-15T02:54:13.723Z,29.20
2017-12-15T02:56:44.171Z,29.20
2017-12-15T02:59:15.366Z,29.30
2017-12-15T03:01:45.836Z,29.30
2017-12-15T03:04:17.063Z,29.40
2017-12-15T03:06:47.522Z,29.40
2017-12-15T03:09:17.966Z,29.40
2017-12-15T03:11:48.638Z,29.50
2017-12-15T03:14:19.155Z,29.60
2017-12-15T03:16:49.586Z,29.60
2017-12-15T03:19:20.055Z,29.60
2017-12-15T03:21:51.254Z,29.70
2017-12-15T03:24:21.724Z,29.70
2017-12-15T03:26:53.031Z,29.80
2017-12-15T03:29:23.477Z,29.80
2017-12-15T03:31:53.955Z,29.80
2017-12-15T03:34:24.611Z,29.90
2017-12-15T03:36:55.209Z,29.90
2017-12-15T03:39:25.643Z,30.00
2017-12-15T03:41:56.130Z,30.00
2017-12-15T03:44:26.565Z,30.00
2017-12-15T03:46:57.794Z,30.10
2017-12-15T03:49:28.563Z,30.10
2017-12-15T03:51:59.121Z,30.20
2017-12-15T03:54:29.568Z,30.20
2017-12-15T03:57:00.013Z,30.30
2017-12-15T03:59:30.480Z,30.40
2017-12-15T04:02:00.932Z,30.40
2017-12-15T04:04:31.415Z,30.40
2017-12-15T04:07:02.611Z,30.40
2017-12-15T04:09:33.396Z,30.40
2017-12-15T04:12:04.698Z,30.50
2017-12-15T04:14:35.526Z,30.50
2017-12-15T04:17:06.007Z,30.50
2017-12-15T04:19:37.514Z,30.50
2017-12-15T04:22:08.045Z,30.50
2017-12-15T04:24:38.551Z,30.60
2017-12-15T04:27:09.210Z,30.70
2017-12-15T04:29:39.812Z,30.70
2017-12-15T04:32:10.317Z,30.70
2017-12-15T04:34:41.553Z,30.70
2017-12-15T04:37:13.015Z,30.80
2017-12-15T04:39:44.227Z,30.80
2017-12-15T04:42:14.862Z,30.80
2017-12-15T04:44:45.590Z,30.80
2017-12-15T04:47:16.234Z,30.90
2017-12-15T04:49:46.685Z,30.90
2017-12-15T04:52:19.226Z,31.00
2017-12-15T04:54:53.805Z,31.00
2017-12-15T04:57:24.378Z,31.00
2017-12-15T04:59:54.867Z,31.10
2017-12-15T05:02:25.307Z,31.10
2017-12-15T05:04:55.789Z,31.10
2017-12-15T05:07:26.999Z,31.10
2017-12-15T05:09:57.481Z,31.00
2017-12-15T05:12:27.992Z,31.10
2017-12-15T05:14:59.242Z,31.10
2017-12-15T05:17:30.477Z,31.10
2017-12-15T05:20:01.702Z,31.10
2017-12-15T05:22:32.169Z,31.10
2017-12-15T05:25:02.645Z,31.10
2017-12-15T05:27:33.105Z,31.20
2017-12-15T05:30:04.391Z,31.20
2017-12-15T05:32:35.612Z,31.30
2017-12-15T05:35:06.086Z,31.20
2017-12-15T05:37:36.502Z,31.30
2017-12-15T05:40:06.958Z,31.30
2017-12-15T05:42:37.424Z,31.30
2017-12-15T05:45:08.645Z,31.30
2017-12-15T05:47:39.858Z,31.30
2017-12-15T05:50:10.331Z,31.30
2017-12-15T05:52:40.791Z,31.40
2017-12-15T05:55:11.323Z,31.40
2017-12-15T05:57:41.813Z,31.40
2017-12-15T06:00:13.053Z,31.50
2017-12-15T06:02:44.311Z,31.50
2017-12-15T06:05:14.732Z,31.50
2017-12-15T06:07:45.953Z,31.50
2017-12-15T06:10:16.469Z,31.50
2017-12-15T06:12:46.931Z,31.50
2017-12-15T06:15:18.138Z,31.50
2017-12-15T06:17:48.577Z,31.50
2017-12-15T06:20:18.990Z,31.50
2017-12-15T06:22:49.431Z,31.50
2017-12-15T06:25:19.902Z,31.60
2017-12-15T06:27:50.461Z,31.60
2017-12-15T06:30:20.885Z,31.60
2017-12-15T06:32:51.370Z,31.60
2017-12-15T06:35:22.561Z,31.60
2017-12-15T06:37:53.025Z,31.60
2017-12-15T06:40:23.521Z,31.60
2017-12-15T06:42:53.997Z,31.70
2017-12-15T06:45:25.258Z,31.60
2017-12-15T06:47:55.714Z,31.60
2017-12-15T06:50:26.135Z,31.60
2017-12-15T06:52:56.563Z,31.60
2017-12-15T06:55:27.025Z,31.70
2017-12-15T06:57:57.478Z,31.70
2017-12-15T07:00:28.688Z,31.80
2017-12-15T07:02:59.166Z,31.70
2017-12-15T07:05:29.629Z,31.80
2017-12-15T07:08:00.078Z,31.80
2017-12-15T07:10:30.505Z,31.80
2017-12-15T07:13:00.894Z,31.80
2017-12-15T07:15:31.341Z,31.80
2017-12-15T07:18:01.804Z,31.80
2017-12-15T07:20:32.999Z,31.80
2017-12-15T07:23:03.465Z,31.80
2017-12-15T07:25:33.919Z,31.80
2017-12-15T07:28:04.348Z,31.70
2017-12-15T07:30:34.802Z,31.70
2017-12-15T07:33:05.203Z,31.70
2017-12-15T07:35:35.642Z,31.60
2017-12-15T07:38:06.046Z,31.60
2017-12-15T07:40:37.267Z,31.60
2017-12-15T07:43:07.738Z,31.60
2017-12-15T07:45:38.250Z,31.70
2017-12-15T07:48:09.439Z,31.70
2017-12-15T07:50:39.886Z,31.70
2017-12-15T07:53:10.303Z,31.70
2017-12-15T07:55:40.750Z,31.70
2017-12-15T07:58:11.154Z,31.70
2017-12-15T08:00:41.633Z,31.70
2017-12-15T08:03:12.074Z,31.70
2017-12-15T08:05:42.518Z,31.70
2017-12-15T08:08:13.067Z,31.70
2017-12-15T08:10:43.534Z,31.70
2017-12-15T08:13:14.746Z,31.60
2017-12-15T08:15:45.216Z,31.60
2017-12-15T08:18:15.659Z,31.60
2017-12-15T08:20:46.090Z,31.60
2017-12-15T08:23:16.760Z,31.50
2017-12-15T08:25:47.248Z,31.50
2017-12-15T08:28:17.749Z,31.40
2017-12-15T08:30:49.009Z,31.30
2017-12-15T08:33:19.448Z,31.30
2017-12-15T08:35:49.902Z,31.20
2017-12-15T08:38:20.326Z,31.20
2017-12-15T08:40:50.781Z,31.20
2017-12-15T08:43:21.200Z,31.20
2017-12-15T08:45:51.665Z,31.20
2017-12-15T08:48:22.641Z,31.20
2017-12-15T08:50:53.061Z,31.20
2017-12-15T08:53:23.518Z,31.10
2017-12-15T08:55:53.954Z,31.10
2017-12-15T08:58:24.395Z,31.10
2017-12-15T09:00:55.613Z,31.10
2017-12-15T09:03:26.075Z,31.10
2017-12-15T09:05:57.294Z,31.10
2017-12-15T09:08:27.746Z,31.10
2017-12-15T09:10:58.944Z,31.00
2017-12-15T09:13:29.398Z,31.00
2017-12-15T09:15:59.895Z,31.00
2017-12-15T09:18:30.352Z,31.00
2017-12-15T09:21:00.780Z,30.90
2017-12-15T09:23:31.180Z,30.90
2017-12-15T09:26:01.637Z,30.90
2017-12-15T09:28:32.078Z,30.90
2017-12-15T09:31:03.275Z,30.90
2017-12-15T09:33:33.934Z,30.90
2017-12-15T09:36:04.407Z,30.80
2017-12-15T09:38:34.851Z,30.90
2017-12-15T09:41:05.367Z,30.80
2017-12-15T09:43:35.817Z,30.80
2017-12-15T09:46:06.279Z,30.70
2017-12-15T09:48:36.722Z,30.70
2017-12-15T09:51:07.927Z,30.60
2017-12-15T09:53:38.347Z,30.60
2017-12-15T09:56:08.802Z,30.50
2017-12-15T09:58:39.266Z,30.50
2017-12-15T10:01:09.711Z,30.50
2017-12-15T10:03:40.150Z,30.40
2017-12-15T10:06:10.584Z,30.40
2017-12-15T10:08:40.996Z,30.40
2017-12-15T10:11:11.449Z,30.30
2017-12-15T10:13:41.881Z,30.30
2017-12-15T10:16:12.363Z,30.20
2017-12-15T10:18:42.766Z,30.20
2017-12-15T10:21:13.977Z,30.10
2017-12-15T10:23:44.406Z,30.10
2017-12-15T10:26:14.862Z,30.00
2017-12-15T10:28:45.316Z,30.00
2017-12-15T10:31:17.049Z,30.00
2017-12-15T10:33:48.229Z,29.90
2017-12-15T10:36:19.031Z,29.90
2017-12-15T10:38:50.242Z,29.80
2017-12-15T10:41:20.701Z,29.80
2017-12-15T10:43:51.891Z,29.70
2017-12-15T10:46:22.353Z,29.70
2017-12-15T10:48:52.790Z,29.70
2017-12-15T10:58:18.054Z,29.70
2017-12-15T11:00:48.519Z,29.70
2017-12-15T11:03:18.964Z,29.70
2017-12-15T11:05:49.395Z,29.60
2017-12-15T11:08:19.850Z,29.60
2017-12-15T11:10:50.293Z,29.70
2017-12-15T11:13:20.939Z,29.60
2017-12-15T11:15:51.370Z,29.60
2017-12-15T11:18:21.852Z,29.60
2017-12-15T14:55:11.551Z,29.30
2017-12-15T14:57:42.002Z,29.30
2017-12-15T15:00:12.450Z,29.30
2017-12-15T15:02:42.907Z,29.30
2017-12-15T15:05:14.156Z,29.30
2017-12-15T15:07:45.418Z,29.30
2017-12-15T15:10:15.870Z,29.30
2017-12-15T15:12:46.318Z,29.30
2017-12-15T15:15:16.782Z,29.30
2017-12-15T15:17:48.000Z,29.30
2017-12-15T15:20:18.454Z,29.30
2017-12-15T15:22:49.674Z,29.40
2017-12-15T15:25:20.135Z,29.30
2017-12-15T15:27:51.353Z,29.40
2017-12-15T15:30:21.816Z,29.40
2017-12-15T15:32:52.265Z,29.40
2017-12-15T15:35:22.738Z,29.40
2017-12-15T15:37:53.223Z,29.30
2017-12-15T15:40:23.718Z,29.30
2017-12-15T15:42:55.003Z,29.30
2017-12-15T15:45:25.479Z,29.30
2017-12-15T15:47:56.742Z,29.30
2017-12-15T15:50:27.981Z,29.30
2017-12-15T15:52:59.189Z,29.30
2017-12-15T15:55:29.650Z,29.20
2017-12-15T15:58:00.893Z,29.20
2017-12-15T16:00:32.140Z,29.20
2017-12-15T16:03:03.397Z,29.20
2017-12-15T16:05:33.899Z,29.20
2017-12-15T16:08:04.326Z,29.20
2017-12-15T16:10:34.795Z,29.20
2017-12-15T16:13:05.903Z,29.30
2017-12-15T16:15:37.123Z,29.20
2017-12-15T16:18:07.571Z,29.20
2017-12-15T16:20:38.421Z,29.20
2017-12-15T16:23:10.227Z,29.20
2017-12-15T16:25:40.750Z,29.20
2017-12-15T16:28:11.544Z,29.20
2017-12-15T16:30:42.793Z,29.20
2017-12-15T16:33:14.033Z,29.20
2017-12-15T16:35:45.279Z,29.20
2017-12-15T16:38:16.471Z,29.20
2017-12-15T16:40:46.914Z,29.10
2017-12-15T16:43:17.416Z,29.20
2017-12-15T16:45:48.226Z,29.20
2017-12-15T16:48:18.775Z,29.20
2017-12-15T16:50:49.278Z,29.20
2017-12-15T16:53:20.554Z,28.70
2017-12-15T16:55:51.096Z,29.10
2017-12-15T16:58:21.565Z,29.00
2017-12-15T17:00:52.019Z,29.00
2017-12-15T17:03:22.738Z,28.90
2017-12-15T17:05:54.138Z,28.80
2017-12-15T17:08:24.662Z,28.70
2017-12-15T17:13:29.871Z,28.70
2017-12-15T17:16:01.090Z,28.60
2017-12-15T17:18:31.586Z,28.60
2017-12-15T17:21:02.050Z,28.60
2017-12-15T17:23:32.529Z,28.60
2017-12-15T17:26:05.014Z,28.50
2017-12-15T17:28:35.459Z,28.50
2017-12-15T17:31:05.928Z,28.50
2017-12-15T17:33:37.135Z,28.50
2017-12-15T17:36:07.551Z,28.50
2017-12-15T17:38:37.978Z,28.50
2017-12-15T17:41:08.416Z,28.40
2017-12-15T17:43:38.863Z,28.40
2017-12-15T17:46:09.304Z,28.30
2017-12-15T17:48:40.495Z,28.30
2017-12-15T17:51:10.954Z,28.30
2017-12-15T17:53:41.376Z,28.40
2017-12-15T17:56:11.855Z,28.40
2017-12-15T17:58:42.304Z,28.40
2017-12-15T18:01:12.765Z,28.30
2017-12-15T18:03:43.227Z,28.30
2017-12-15T18:06:13.694Z,28.30
2017-12-15T18:08:44.172Z,28.30
2017-12-15T18:11:15.416Z,28.30
2017-12-15T18:13:46.661Z,28.40
2017-12-15T18:16:17.902Z,28.40
2017-12-15T18:18:49.125Z,28.40
2017-12-15T18:21:19.589Z,28.40
2017-12-15T18:23:50.782Z,28.40
2017-12-15T18:26:21.228Z,28.40
2017-12-15T18:28:51.637Z,28.40
2017-12-15T18:31:22.201Z,28.30
2017-12-15T18:33:53.399Z,28.30
2017-12-15T18:36:23.864Z,28.30
2017-12-15T18:38:54.341Z,28.30
2017-12-15T18:41:24.767Z,28.30
2017-12-15T18:43:55.238Z,28.30
2017-12-15T18:46:25.705Z,28.20
2017-12-15T18:48:56.110Z,28.20
2017-12-15T18:51:27.370Z,28.20
2017-12-15T18:53:57.808Z,28.20
2017-12-15T18:56:28.262Z,28.10
2017-12-15T18:58:58.769Z,28.10
2017-12-15T19:01:29.272Z,28.10
2017-12-15T19:04:00.524Z,28.00
2017-12-15T19:06:31.713Z,28.00
2017-12-15T19:09:02.214Z,28.00
2017-12-15T19:11:32.731Z,28.00
2017-12-15T19:14:03.221Z,28.00
2017-12-15T19:16:33.650Z,27.90
2017-12-15T19:19:04.215Z,27.90
2017-12-15T19:21:34.742Z,27.80
2017-12-15T19:24:05.192Z,27.80
2017-12-15T19:26:35.711Z,27.80
2017-12-15T19:29:06.185Z,27.70
2017-12-15T19:31:36.686Z,27.70
2017-12-15T19:34:07.146Z,27.70
2017-12-15T19:36:37.634Z,27.70
2017-12-15T19:39:08.064Z,27.80
2017-12-15T19:41:38.639Z,27.70
2017-12-15T19:44:09.102Z,27.70
2017-12-15T19:46:39.585Z,27.70
2017-12-15T19:49:10.032Z,27.70
2017-12-15T19:51:41.223Z,27.60
2017-12-15T19:54:11.655Z,27.60
2017-12-15T19:56:42.136Z,27.60
2017-12-15T19:59:13.326Z,27.60
2017-12-15T20:01:43.783Z,27.50
2017-12-15T20:04:14.274Z,27.50
2017-12-15T20:06:44.707Z,27.60
2017-12-15T20:09:15.161Z,27.50
2017-12-15T20:11:45.623Z,27.50
2017-12-15T20:14:16.842Z,27.40
2017-12-15T20:16:47.325Z,27.40
2017-12-15T20:19:17.767Z,27.10
2017-12-15T20:21:48.222Z,27.30
2017-12-15T20:24:18.676Z,27.30
2017-12-15T20:26:49.910Z,27.30
2017-12-15T20:29:21.118Z,27.20
2017-12-15T20:31:51.596Z,27.20
2017-12-15T20:34:22.050Z,27.20
2017-12-15T20:36:52.549Z,27.20
2017-12-15T20:39:22.999Z,27.20
2017-12-15T20:41:53.466Z,27.20
2017-12-15T20:44:23.902Z,27.20
2017-12-15T20:46:54.401Z,27.20
2017-12-15T20:49:24.830Z,27.20
2017-12-15T20:51:55.286Z,27.20
2017-12-15T20:54:25.730Z,27.20
2017-12-15T20:56:56.973Z,27.10
2017-12-15T20:59:28.188Z,27.00
2017-12-15T21:01:58.626Z,27.00
2017-12-15T21:04:29.049Z,27.00
2017-12-15T21:06:59.481Z,27.00
2017-12-15T21:09:29.941Z,27.00
2017-12-15T21:12:00.419Z,27.00
2017-12-15T21:14:30.918Z,26.90
2017-12-15T21:17:01.385Z,26.90
2017-12-15T21:19:31.822Z,26.90
2017-12-15T21:22:02.261Z,26.90
2017-12-15T21:24:33.486Z,26.90
2017-12-15T21:27:03.939Z,26.80
2017-12-15T21:29:35.190Z,26.80
2017-12-15T21:32:06.569Z,26.80
2017-12-15T21:34:37.003Z,26.80
2017-12-15T21:37:07.487Z,26.80
2017-12-15T21:39:38.709Z,26.80
2017-12-15T21:42:09.178Z,26.80
2017-12-15T21:44:39.625Z,26.80
2017-12-15T21:47:10.126Z,26.80
2017-12-15T21:49:40.542Z,26.70
2017-12-15T21:52:11.731Z,26.60
2017-12-15T21:54:42.150Z,26.60
2017-12-15T21:57:12.808Z,26.60
2017-12-15T21:59:43.235Z,26.50
2017-12-15T22:02:13.712Z,26.50
2017-12-15T22:04:44.266Z,26.50
2017-12-15T22:07:14.730Z,26.40
2017-12-15T22:09:45.185Z,26.40
2017-12-15T22:12:16.389Z,26.20
2017-12-15T22:14:46.908Z,26.30
2017-12-15T22:17:17.394Z,26.20
2017-12-15T22:19:47.815Z,26.20
2017-12-15T22:22:19.055Z,26.10
2017-12-15T22:24:50.231Z,26.10
2017-12-15T22:27:20.685Z,26.10
2017-12-15T22:29:51.117Z,26.00
2017-12-15T22:32:21.551Z,26.00
2017-12-15T22:34:52.014Z,26.10
2017-12-15T22:37:22.523Z,26.00
2017-12-15T22:39:52.942Z,26.00
2017-12-15T22:42:23.359Z,26.00
2017-12-15T22:44:53.782Z,26.00
2017-12-15T22:47:24.174Z,26.00
2017-12-15T22:49:54.630Z,25.90
2017-12-15T22:52:25.080Z,25.90
2017-12-15T22:54:55.575Z,25.90
2017-12-15T22:57:26.029Z,25.90
2017-12-15T22:59:57.555Z,25.90
2017-12-15T23:02:28.236Z,25.90
2017-12-15T23:04:59.073Z,25.90
2017-12-15T23:07:30.314Z,25.90
2017-12-15T23:10:01.781Z,25.90
2017-12-15T23:12:32.199Z,25.90
2017-12-15T23:15:03.421Z,25.90
2017-12-15T23:17:33.862Z,25.90
2017-12-15T23:20:05.120Z,25.90
2017-12-15T23:22:36.356Z,25.90
2017-12-15T23:25:07.566Z,25.90
2017-12-15T23:27:38.031Z,25.90
2017-12-15T23:30:09.504Z,25.90
2017-12-15T23:32:39.954Z,25.90
2017-12-15T23:35:10.444Z,25.90
2017-12-15T23:37:41.678Z,25.90
2017-12-15T23:40:12.154Z,25.90
2017-12-15T23:42:42.643Z,25.80
2017-12-15T23:45:13.882Z,25.80
2017-12-15T23:47:45.133Z,25.80
2017-12-15T23:50:16.350Z,25.80
2017-12-15T23:52:46.818Z,25.80
2017-12-15T23:55:27.807Z,25.90
2017-12-15T23:57:58.269Z,25.90
